sensor_id;sensor_type;location;lat;lon;timestamp;pressure;altitude;pressure_sealevel;temperature;humidity
46223;BME280;31943;51.410;7.564;2022-10-17T00:00:36;100471.59;;;14.69;69.42
46223;BME280;31943;51.410;7.564;2022-10-17T00:03:02;100470.72;;;14.66;69.46
46223;BME280;31943;51.410;7.564;2022-10-17T00:06:07;100479.50;;;14.61;69.82
46223;BME280;31943;51.410;7.564;2022-10-17T00:09:06;100481.22;;;14.64;69.46
46223;BME280;31943;51.410;7.564;2022-10-17T00:11:41;100474.22;;;14.63;69.64
46223;BME280;31943;51.410;7.564;2022-10-17T00:14:26;100479.50;;;14.58;69.88
46223;BME280;31943;51.410;7.564;2022-10-17T00:16:53;100481.25;;;14.47;70.05
46223;BME280;31943;51.410;7.564;2022-10-17T00:19:22;100481.28;;;14.41;70.45
46223;BME280;31943;51.410;7.564;2022-10-17T00:22:10;100480.38;;;14.40;70.55
46223;BME280;31943;51.410;7.564;2022-10-17T00:27:39;100477.75;;;14.42;70.65
46223;BME280;31943;51.410;7.564;2022-10-17T00:30:14;100476.00;;;14.42;70.62
46223;BME280;31943;51.410;7.564;2022-10-17T00:32:45;100476.00;;;14.44;70.42
46223;BME280;31943;51.410;7.564;2022-10-17T00:35:11;100472.50;;;14.45;70.42
46223;BME280;31943;51.410;7.564;2022-10-17T00:37:40;100477.75;;;14.40;70.64
46223;BME280;31943;51.410;7.564;2022-10-17T00:40:27;100479.50;;;14.41;70.47
46223;BME280;31943;51.410;7.564;2022-10-17T00:42:54;100476.00;;;14.41;70.20
46223;BME280;31943;51.410;7.564;2022-10-17T00:45:25;100464.66;;;14.37;70.42
46223;BME280;31943;51.410;7.564;2022-10-17T00:47:58;100466.41;;;14.35;70.74
46223;BME280;31943;51.410;7.564;2022-10-17T00:50:29;100463.78;;;14.37;70.53
46223;BME280;31943;51.410;7.564;2022-10-17T00:55:57;100467.31;;;14.25;71.01
46223;BME280;31943;51.410;7.564;2022-10-17T00:58:30;100466.41;;;14.17;71.41
46223;BME280;31943;51.410;7.564;2022-10-17T01:01:19;100459.44;;;14.17;71.65
46223;BME280;31943;51.410;7.564;2022-10-17T01:04:01;100468.16;;;14.18;71.40
46223;BME280;31943;51.410;7.564;2022-10-17T01:06:27;100458.56;;;14.21;71.61
46223;BME280;31943;51.410;7.564;2022-10-17T01:09:15;100464.69;;;14.25;71.60
46223;BME280;31943;51.410;7.564;2022-10-17T01:11:55;100465.53;;;14.26;71.67
46223;BME280;31943;51.410;7.564;2022-10-17T01:14:34;100463.78;;;14.24;71.48
46223;BME280;31943;51.410;7.564;2022-10-17T01:17:09;100469.06;;;14.12;71.46
46223;BME280;31943;51.410;7.564;2022-10-17T01:20:08;100462.06;;;14.10;71.91
46223;BME280;31943;51.410;7.564;2022-10-17T01:22:48;100455.91;;;14.11;71.77
46223;BME280;31943;51.410;7.564;2022-10-17T01:25:28;100452.41;;;14.15;72.00
46223;BME280;31943;51.410;7.564;2022-10-17T01:28:15;100457.69;;;14.19;71.91
46223;BME280;31943;51.410;7.564;2022-10-17T01:31:05;100454.19;;;14.16;72.14
46223;BME280;31943;51.410;7.564;2022-10-17T01:33:41;100453.31;;;14.21;71.75
46223;BME280;31943;51.410;7.564;2022-10-17T01:36:35;100454.16;;;14.22;72.24
46223;BME280;31943;51.410;7.564;2022-10-17T01:39:15;100451.53;;;14.22;72.44
46223;BME280;31943;51.410;7.564;2022-10-17T01:41:50;100452.41;;;14.15;72.83
46223;BME280;31943;51.410;7.564;2022-10-17T01:44:31;100454.16;;;14.11;73.19
46223;BME280;31943;51.410;7.564;2022-10-17T01:47:08;100460.31;;;14.12;73.56
46223;BME280;31943;51.410;7.564;2022-10-17T01:49:38;100457.69;;;14.09;73.69
46223;BME280;31943;51.410;7.564;2022-10-17T01:55:11;100458.56;;;14.06;74.37
46223;BME280;31943;51.410;7.564;2022-10-17T01:57:42;100452.44;;;14.13;74.27
46223;BME280;31943;51.410;7.564;2022-10-17T02:00:18;100446.28;;;14.22;74.01
46223;BME280;31943;51.410;7.564;2022-10-17T02:02:57;100455.03;;;14.30;73.54
46223;BME280;31943;51.410;7.564;2022-10-17T02:05:41;100441.00;;;14.36;73.50
46223;BME280;31943;51.410;7.564;2022-10-17T02:08:09;100441.00;;;14.40;73.35
46223;BME280;31943;51.410;7.564;2022-10-17T02:10:40;100449.72;;;14.42;73.79
46223;BME280;31943;51.410;7.564;2022-10-17T02:13:14;100438.34;;;14.48;73.82
46223;BME280;31943;51.410;7.564;2022-10-17T02:16:15;100424.34;;;14.48;73.95
46223;BME280;31943;51.410;7.564;2022-10-17T02:19:15;100438.34;;;14.53;74.75
46223;BME280;31943;51.410;7.564;2022-10-17T02:21:47;100440.06;;;14.66;74.97
46223;BME280;31943;51.410;7.564;2022-10-17T02:24:23;100433.94;;;14.69;75.27
46223;BME280;31943;51.410;7.564;2022-10-17T02:27:19;100439.22;;;14.58;74.92
46223;BME280;31943;51.410;7.564;2022-10-17T02:30:08;100430.44;;;14.56;74.57
46223;BME280;31943;51.410;7.564;2022-10-17T02:35:53;100429.59;;;14.65;75.42
46223;BME280;31943;51.410;7.564;2022-10-17T02:41:15;100438.22;;;14.93;76.44
46223;BME280;31943;51.410;7.564;2022-10-17T02:44:01;100428.53;;;15.06;76.72
46223;BME280;31943;51.410;7.564;2022-10-17T02:46:31;100432.84;;;15.17;76.83
46223;BME280;31943;51.410;7.564;2022-10-17T02:49:02;100430.13;;;15.30;76.94
46223;BME280;31943;51.410;7.564;2022-10-17T02:51:43;100425.69;;;15.38;77.18
46223;BME280;31943;51.410;7.564;2022-10-17T02:54:19;100428.25;;;15.46;77.06
46223;BME280;31943;51.410;7.564;2022-10-17T02:56:58;100423.81;;;15.52;77.10
46223;BME280;31943;51.410;7.564;2022-10-17T02:59:29;100422.91;;;15.58;76.83
46223;BME280;31943;51.410;7.564;2022-10-17T03:01:55;100419.34;;;15.62;76.63
46223;BME280;31943;51.410;7.564;2022-10-17T03:04:21;100421.13;;;15.65;76.88
46223;BME280;31943;51.410;7.564;2022-10-17T03:06:59;100428.09;;;15.69;76.78
46223;BME280;31943;51.410;7.564;2022-10-17T03:09:27;100434.22;;;15.71;76.65
46223;BME280;31943;51.410;7.564;2022-10-17T03:11:54;100425.41;;;15.72;76.55
46223;BME280;31943;51.410;7.564;2022-10-17T03:14:21;100430.69;;;15.78;76.71
46223;BME280;31943;51.410;7.564;2022-10-17T03:16:47;100429.75;;;15.84;76.75
46223;BME280;31943;51.410;7.564;2022-10-17T03:19:18;100423.56;;;15.89;76.66
46223;BME280;31943;51.410;7.564;2022-10-17T03:21:44;100435.78;;;15.93;76.68
46223;BME280;31943;51.410;7.564;2022-10-17T03:24:16;100427.03;;;15.96;76.13
46223;BME280;31943;51.410;7.564;2022-10-17T03:26:44;100430.50;;;15.96;76.36
46223;BME280;31943;51.410;7.564;2022-10-17T03:29:16;100432.25;;;15.99;76.11
46223;BME280;31943;51.410;7.564;2022-10-17T03:31:46;100424.34;;;16.00;76.01
46223;BME280;31943;51.410;7.564;2022-10-17T03:34:13;100430.44;;;16.04;75.93
46223;BME280;31943;51.410;7.564;2022-10-17T03:36:41;100433.94;;;16.06;75.92
46223;BME280;31943;51.410;7.564;2022-10-17T03:39:07;100428.66;;;16.08;75.79
46223;BME280;31943;51.410;7.564;2022-10-17T03:41:42;100440.91;;;16.10;75.98
46223;BME280;31943;51.410;7.564;2022-10-17T03:44:18;100440.00;;;16.14;76.06
46223;BME280;31943;51.410;7.564;2022-10-17T03:46:48;100442.59;;;16.17;75.67
46223;BME280;31943;51.410;7.564;2022-10-17T03:49:26;100444.31;;;16.21;75.81
46223;BME280;31943;51.410;7.564;2022-10-17T03:51:55;100439.91;;;16.24;75.82
46223;BME280;31943;51.410;7.564;2022-10-17T03:54:25;100435.44;;;16.29;76.03
46223;BME280;31943;51.410;7.564;2022-10-17T03:56:54;100436.34;;;16.31;75.83
46223;BME280;31943;51.410;7.564;2022-10-17T03:59:48;100439.78;;;16.34;75.70
46223;BME280;31943;51.410;7.564;2022-10-17T04:02:22;100445.03;;;16.37;75.68
46223;BME280;31943;51.410;7.564;2022-10-17T04:09:45;100451.13;;;16.41;74.96
46223;BME280;31943;51.410;7.564;2022-10-17T04:18:36;100452.78;;;16.51;75.21
46223;BME280;31943;51.410;7.564;2022-10-17T05:32:29;100492.63;;;17.01;72.30
46223;BME280;31943;51.410;7.564;2022-10-17T05:35:20;100499.66;;;17.02;72.29
46223;BME280;31943;51.410;7.564;2022-10-17T05:57:04;100494.31;;;17.08;71.60
46223;BME280;31943;51.410;7.564;2022-10-17T06:00:08;100494.31;;;17.08;71.92
46223;BME280;31943;51.410;7.564;2022-10-17T06:06:44;100508.25;;;17.15;71.39
46223;BME280;31943;51.410;7.564;2022-10-17T06:12:35;100517.06;;;17.15;71.72
46223;BME280;31943;51.410;7.564;2022-10-17T06:18:02;100517.94;;;17.16;71.30
46223;BME280;31943;51.410;7.564;2022-10-17T06:36:27;100527.34;;;17.37;70.24
46223;BME280;31943;51.410;7.564;2022-10-17T06:38:54;100535.19;;;17.40;70.27
46223;BME280;31943;51.410;7.564;2022-10-17T06:41:21;100539.56;;;17.43;70.27
46223;BME280;31943;51.410;7.564;2022-10-17T06:43:47;100537.78;;;17.45;70.33
46223;BME280;31943;51.410;7.564;2022-10-17T06:46:17;100547.34;;;17.50;69.87
46223;BME280;31943;51.410;7.564;2022-10-17T06:48:45;100563.19;;;17.52;70.18
46223;BME280;31943;51.410;7.564;2022-10-17T06:51:33;100556.97;;;17.56;69.67
46223;BME280;31943;51.410;7.564;2022-10-17T06:54:13;100565.69;;;17.61;69.42
46223;BME280;31943;51.410;7.564;2022-10-17T06:56:46;100567.41;;;17.65;69.47
46223;BME280;31943;51.410;7.564;2022-10-17T06:59:14;100564.75;;;17.67;69.71
46223;BME280;31943;51.410;7.564;2022-10-17T07:01:41;100567.31;;;17.70;69.11
46223;BME280;31943;51.410;7.564;2022-10-17T07:04:07;100573.44;;;17.72;69.74
46223;BME280;31943;51.410;7.564;2022-10-17T07:06:36;100561.16;;;17.72;69.30
46223;BME280;31943;51.410;7.564;2022-10-17T07:09:04;100566.41;;;17.74;69.19
46223;BME280;31943;51.410;7.564;2022-10-17T07:11:30;100556.66;;;17.77;68.88
46223;BME280;31943;51.410;7.564;2022-10-17T07:13:57;100559.25;;;17.82;69.01
46223;BME280;31943;51.410;7.564;2022-10-17T07:16:23;100562.75;;;17.84;69.41
46223;BME280;31943;51.410;7.564;2022-10-17T07:18:50;100571.44;;;17.91;69.26
46223;BME280;31943;51.410;7.564;2022-10-17T07:21:16;100569.56;;;17.99;68.53
46223;BME280;31943;51.410;7.564;2022-10-17T07:23:46;100576.59;;;18.00;68.94
46223;BME280;31943;51.410;7.564;2022-10-17T07:26:14;100573.94;;;18.02;68.43
46223;BME280;31943;51.410;7.564;2022-10-17T07:28:42;100577.38;;;18.07;68.76
46223;BME280;31943;51.410;7.564;2022-10-17T07:31:12;100583.47;;;18.12;68.28
46223;BME280;31943;51.410;7.564;2022-10-17T07:33:39;100588.72;;;18.13;68.47
46223;BME280;31943;51.410;7.564;2022-10-17T07:36:05;100581.69;;;18.12;68.31
46223;BME280;31943;51.410;7.564;2022-10-17T07:38:32;100584.28;;;18.17;68.43
46223;BME280;31943;51.410;7.564;2022-10-17T07:41:05;100579.84;;;18.19;68.03
46223;BME280;31943;51.410;7.564;2022-10-17T07:43:32;100570.97;;;18.23;68.13
46223;BME280;31943;51.410;7.564;2022-10-17T07:46:00;100577.03;;;18.27;68.09
46223;BME280;31943;51.410;7.564;2022-10-17T07:48:26;100586.63;;;18.32;67.59
46223;BME280;31943;51.410;7.564;2022-10-17T07:50:53;100580.41;;;18.36;67.62
46223;BME280;31943;51.410;7.564;2022-10-17T07:53:21;100585.69;;;18.36;67.61
46223;BME280;31943;51.410;7.564;2022-10-17T07:55:47;100578.59;;;18.40;67.11
46223;BME280;31943;51.410;7.564;2022-10-17T07:58:17;100575.88;;;18.45;67.32
46223;BME280;31943;51.410;7.564;2022-10-17T08:00:43;100574.03;;;18.50;67.55
46223;BME280;31943;51.410;7.564;2022-10-17T08:03:09;100572.22;;;18.52;67.34
46223;BME280;31943;51.410;7.564;2022-10-17T08:05:38;100580.09;;;18.56;66.75
46223;BME280;31943;51.410;7.564;2022-10-17T08:08:04;100582.69;;;18.58;67.25
46223;BME280;31943;51.410;7.564;2022-10-17T08:10:30;100577.34;;;18.61;66.78
46223;BME280;31943;51.410;7.564;2022-10-17T08:12:57;100580.81;;;18.65;66.72
46223;BME280;31943;51.410;7.564;2022-10-17T08:15:25;100597.44;;;18.70;66.98
46223;BME280;31943;51.410;7.564;2022-10-17T08:17:51;100584.22;;;18.71;66.45
46223;BME280;31943;51.410;7.564;2022-10-17T08:20:17;100592.97;;;18.75;66.40
46223;BME280;31943;51.410;7.564;2022-10-17T08:22:50;100591.22;;;18.74;66.37
46223;BME280;31943;51.410;7.564;2022-10-17T08:25:17;100588.59;;;18.74;65.96
46223;BME280;31943;51.410;7.564;2022-10-17T08:27:43;100585.03;;;18.75;65.96
46223;BME280;31943;51.410;7.564;2022-10-17T08:30:12;100583.22;;;18.78;65.65
46223;BME280;31943;51.410;7.564;2022-10-17T08:32:52;100591.09;;;18.82;65.76
46223;BME280;31943;51.410;7.564;2022-10-17T08:35:19;100594.56;;;18.85;65.60
46223;BME280;31943;51.410;7.564;2022-10-17T08:37:46;100601.53;;;18.89;66.10
46223;BME280;31943;51.410;7.564;2022-10-17T08:40:20;100599.78;;;18.90;65.57
46223;BME280;31943;51.410;7.564;2022-10-17T08:43:31;100591.72;;;18.96;65.66
46223;BME280;31943;51.410;7.564;2022-10-17T08:46:04;100599.53;;;19.04;65.70
46223;BME280;31943;51.410;7.564;2022-10-17T08:48:37;100599.38;;;19.11;65.68
46223;BME280;31943;51.410;7.564;2022-10-17T08:51:09;100606.38;;;19.14;65.82
46223;BME280;31943;51.410;7.564;2022-10-17T08:53:57;100599.13;;;19.24;65.08
46223;BME280;31943;51.410;7.564;2022-10-17T08:56:34;100603.34;;;19.32;65.28
46223;BME280;31943;51.410;7.564;2022-10-17T08:59:11;100602.19;;;19.46;65.11
46223;BME280;31943;51.410;7.564;2022-10-17T09:01:48;100610.75;;;19.59;64.13
46223;BME280;31943;51.410;7.564;2022-10-17T09:04:53;100614.72;;;19.80;63.89
46223;BME280;31943;51.410;7.564;2022-10-17T09:07:36;100611.78;;;19.93;63.45
46223;BME280;31943;51.410;7.564;2022-10-17T09:10:28;100615.88;;;20.07;63.28
46223;BME280;31943;51.410;7.564;2022-10-17T09:13:15;100623.75;;;20.10;62.68
46223;BME280;31943;51.410;7.564;2022-10-17T09:15:54;100623.56;;;20.19;62.70
46223;BME280;31943;51.410;7.564;2022-10-17T09:18:25;100628.56;;;20.31;62.80
46223;BME280;31943;51.410;7.564;2022-10-17T09:20:58;100607.16;;;20.39;62.40
46223;BME280;31943;51.410;7.564;2022-10-17T09:23:32;100618.72;;;20.37;61.92
46223;BME280;31943;51.410;7.564;2022-10-17T09:26:10;100614.25;;;20.39;62.71
46223;BME280;31943;51.410;7.564;2022-10-17T09:28:44;100618.56;;;20.43;62.27
46223;BME280;31943;51.410;7.564;2022-10-17T09:31:19;100618.41;;;20.49;62.58
46223;BME280;31943;51.410;7.564;2022-10-17T09:33:49;100615.63;;;20.53;61.70
46223;BME280;31943;51.410;7.564;2022-10-17T09:36:20;100613.91;;;20.52;61.77
46223;BME280;31943;51.410;7.564;2022-10-17T09:38:49;100614.75;;;20.54;61.34
46223;BME280;31943;51.410;7.564;2022-10-17T09:41:22;100612.84;;;20.60;60.80
46223;BME280;31943;51.410;7.564;2022-10-17T09:43:54;100632.16;;;20.66;61.10
46223;BME280;31943;51.410;7.564;2022-10-17T09:46:25;100639.78;;;20.79;61.03
46223;BME280;31943;51.410;7.564;2022-10-17T09:49:00;100650.03;;;20.92;60.94
46223;BME280;31943;51.410;7.564;2022-10-17T09:51:32;100659.53;;;21.01;60.38
46223;BME280;31943;51.410;7.564;2022-10-17T09:54:02;100661.44;;;20.96;59.84
46223;BME280;31943;51.410;7.564;2022-10-17T09:56:30;100662.09;;;21.04;59.44
46223;BME280;31943;51.410;7.564;2022-10-17T09:58:57;100660.94;;;21.14;60.20
46223;BME280;31943;51.410;7.564;2022-10-17T10:01:26;100665.91;;;21.27;60.03
46223;BME280;31943;51.410;7.564;2022-10-17T10:04:11;100675.19;;;21.45;59.20
46223;BME280;31943;51.410;7.564;2022-10-17T10:09:39;100668.25;;;21.38;59.00
46223;BME280;31943;51.410;7.564;2022-10-17T10:12:16;100675.97;;;21.14;59.53
46223;BME280;31943;51.410;7.564;2022-10-17T10:14:44;100686.66;;;21.11;60.00
46223;BME280;31943;51.410;7.564;2022-10-17T10:17:32;100677.13;;;21.05;59.89
46223;BME280;31943;51.410;7.564;2022-10-17T10:19:59;100685.16;;;21.02;59.99
46223;BME280;31943;51.410;7.564;2022-10-17T10:22:27;100689.66;;;20.99;59.92
46223;BME280;31943;51.410;7.564;2022-10-17T10:25:06;100696.69;;;21.01;60.26
46223;BME280;31943;51.410;7.564;2022-10-17T10:27:35;100695.78;;;21.01;60.19
46223;BME280;31943;51.410;7.564;2022-10-17T10:30:05;100697.66;;;20.97;60.25
46223;BME280;31943;51.410;7.564;2022-10-17T10:32:33;100706.66;;;20.91;60.39
46223;BME280;31943;51.410;7.564;2022-10-17T10:35:05;100712.06;;;20.87;60.84
46223;BME280;31943;51.410;7.564;2022-10-17T10:37:37;100702.44;;;20.83;60.67
46223;BME280;31943;51.410;7.564;2022-10-17T10:40:06;100705.03;;;20.86;60.89
46223;BME280;31943;51.410;7.564;2022-10-17T10:42:47;100715.84;;;20.77;60.54
46223;BME280;31943;51.410;7.564;2022-10-17T10:45:23;100722.97;;;20.76;61.18
46223;BME280;31943;51.410;7.564;2022-10-17T10:51:47;100734.06;;;20.92;60.61
46223;BME280;31943;51.410;7.564;2022-10-17T10:54:38;100731.28;;;20.97;60.54
46223;BME280;31943;51.410;7.564;2022-10-17T11:01:01;100735.53;;;21.04;60.07
46223;BME280;31943;51.410;7.564;2022-10-17T11:04:11;100731.88;;;21.08;60.55
46223;BME280;31943;51.410;7.564;2022-10-17T11:06:49;100744.34;;;21.04;60.07
46223;BME280;31943;51.410;7.564;2022-10-17T11:09:27;100740.06;;;20.99;60.47
46223;BME280;31943;51.410;7.564;2022-10-17T11:15:07;100761.44;;;20.92;60.59
46223;BME280;31943;51.410;7.564;2022-10-17T11:17:44;100757.94;;;20.92;60.62
46223;BME280;31943;51.410;7.564;2022-10-17T11:20:24;100761.44;;;20.92;61.18
46223;BME280;31943;51.410;7.564;2022-10-17T11:22:59;100769.16;;;21.03;60.65
46223;BME280;31943;51.410;7.564;2022-10-17T11:25:33;100767.47;;;20.99;60.62
46223;BME280;31943;51.410;7.564;2022-10-17T11:28:00;100781.69;;;20.97;60.93
46223;BME280;31943;51.410;7.564;2022-10-17T11:30:45;100785.19;;;20.97;60.46
46223;BME280;31943;51.410;7.564;2022-10-17T11:33:23;100780.97;;;20.90;60.64
46223;BME280;31943;51.410;7.564;2022-10-17T11:35:52;100787.09;;;20.92;60.85
46223;BME280;31943;51.410;7.564;2022-10-17T11:38:24;100790.50;;;20.97;61.34
46223;BME280;31943;51.410;7.564;2022-10-17T11:40:55;100792.25;;;20.98;61.18
46223;BME280;31943;51.410;7.564;2022-10-17T11:43:26;100797.56;;;20.98;60.79
46223;BME280;31943;51.410;7.564;2022-10-17T11:45:58;100788.75;;;20.98;60.88
46223;BME280;31943;51.410;7.564;2022-10-17T11:48:33;100790.44;;;21.00;61.29
46223;BME280;31943;51.410;7.564;2022-10-17T11:51:22;100796.53;;;21.05;60.83
46223;BME280;31943;51.410;7.564;2022-10-17T11:54:10;100794.63;;;21.09;61.38
46223;BME280;31943;51.410;7.564;2022-10-17T11:57:18;100789.44;;;21.04;60.75
46223;BME280;31943;51.410;7.564;2022-10-17T12:00:10;100793.91;;;21.04;60.82
46223;BME280;31943;51.410;7.564;2022-10-17T12:02:49;100793.88;;;21.05;60.75
46223;BME280;31943;51.410;7.564;2022-10-17T12:05:23;100788.56;;;21.05;60.90
46223;BME280;31943;51.410;7.564;2022-10-17T12:08:00;100784.81;;;21.12;61.21
46223;BME280;31943;51.410;7.564;2022-10-17T12:10:36;100774.97;;;21.18;60.81
46223;BME280;31943;51.410;7.564;2022-10-17T12:16:41;100769.63;;;21.19;60.96
46223;BME280;31943;51.410;7.564;2022-10-17T12:19:41;100775.00;;;21.16;60.31
46223;BME280;31943;51.410;7.564;2022-10-17T12:22:20;100772.34;;;21.16;60.40
46223;BME280;31943;51.410;7.564;2022-10-17T12:24:55;100774.97;;;21.18;60.28
46223;BME280;31943;51.410;7.564;2022-10-17T12:27:33;100774.88;;;21.21;60.86
46223;BME280;31943;51.410;7.564;2022-10-17T12:30:01;100780.13;;;21.24;60.39
46223;BME280;31943;51.410;7.564;2022-10-17T12:32:30;100781.09;;;21.20;60.51
46223;BME280;31943;51.410;7.564;2022-10-17T12:35:02;100781.16;;;21.18;60.27
46223;BME280;31943;51.410;7.564;2022-10-17T12:40:58;100789.31;;;21.09;60.47
46223;BME280;31943;51.410;7.564;2022-10-17T12:46:54;100791.88;;;21.13;60.44
46223;BME280;31943;51.410;7.564;2022-10-17T12:49:37;100798.00;;;21.17;60.75
46223;BME280;31943;51.410;7.564;2022-10-17T12:52:29;100787.22;;;21.23;60.20
46223;BME280;31943;51.410;7.564;2022-10-17T12:55:16;100794.19;;;21.27;60.56
46223;BME280;31943;51.410;7.564;2022-10-17T12:57:57;100791.50;;;21.29;60.64
46223;BME280;31943;51.410;7.564;2022-10-17T13:00:32;100791.50;;;21.29;60.25
46223;BME280;31943;51.410;7.564;2022-10-17T13:03:04;100790.53;;;21.31;60.33
46223;BME280;31943;51.410;7.564;2022-10-17T13:05:32;100781.63;;;21.34;60.53
46223;BME280;31943;51.410;7.564;2022-10-17T13:08:02;100785.09;;;21.36;60.45
46223;BME280;31943;51.410;7.564;2022-10-17T13:10:32;100794.03;;;21.33;60.94
46223;BME280;31943;51.410;7.564;2022-10-17T13:13:10;100797.56;;;21.32;60.56
46223;BME280;31943;51.410;7.564;2022-10-17T13:16:08;100804.44;;;21.41;60.46
46223;BME280;31943;51.410;7.564;2022-10-17T13:18:36;100806.19;;;21.42;60.17
46223;BME280;31943;51.410;7.564;2022-10-17T13:21:35;100813.31;;;21.40;60.20
46223;BME280;31943;51.410;7.564;2022-10-17T13:30:44;100820.69;;;21.29;60.64
46223;BME280;31943;51.410;7.564;2022-10-17T13:33:30;100828.75;;;21.24;60.30
46223;BME280;31943;51.410;7.564;2022-10-17T13:35:58;100828.94;;;21.17;60.97
46223;BME280;31943;51.410;7.564;2022-10-17T13:38:30;100838.84;;;21.10;61.22
46223;BME280;31943;51.410;7.564;2022-10-17T13:41:01;100850.34;;;21.09;61.25
46223;BME280;31943;51.410;7.564;2022-10-17T13:43:30;100847.06;;;20.99;61.13
46223;BME280;31943;51.410;7.564;2022-10-17T13:46:02;100854.13;;;21.00;61.03
46223;BME280;31943;51.410;7.564;2022-10-17T13:48:34;100858.47;;;21.03;61.37
46223;BME280;31943;51.410;7.564;2022-10-17T13:51:21;100861.94;;;21.05;61.38
46223;BME280;31943;51.410;7.564;2022-10-17T13:53:56;100858.41;;;21.06;61.34
46223;BME280;31943;51.410;7.564;2022-10-17T13:56:25;100864.66;;;21.03;61.14
46223;BME280;31943;51.410;7.564;2022-10-17T13:59:17;100873.50;;;21.04;60.84
46223;BME280;31943;51.410;7.564;2022-10-17T14:01:50;100880.66;;;21.00;60.70
46223;BME280;31943;51.410;7.564;2022-10-17T14:04:20;100868.28;;;20.99;60.92
46223;BME280;31943;51.410;7.564;2022-10-17T14:06:46;100875.41;;;20.97;61.03
46223;BME280;31943;51.410;7.564;2022-10-17T14:09:21;100883.50;;;20.91;61.32
46223;BME280;31943;51.410;7.564;2022-10-17T14:11:59;100887.97;;;20.89;61.83
46223;BME280;31943;51.410;7.564;2022-10-17T14:14:27;100883.63;;;20.86;61.96
46223;BME280;31943;51.410;7.564;2022-10-17T14:16:55;100887.22;;;20.84;61.76
46223;BME280;31943;51.410;7.564;2022-10-17T14:19:24;100886.38;;;20.82;61.46
46223;BME280;31943;51.410;7.564;2022-10-17T14:21:52;100888.13;;;20.83;61.64
46223;BME280;31943;51.410;7.564;2022-10-17T14:24:27;100881.81;;;20.87;61.58
46223;BME280;31943;51.410;7.564;2022-10-17T14:26:55;100881.66;;;20.94;61.80
46223;BME280;31943;51.410;7.564;2022-10-17T14:29:23;100890.38;;;21.01;61.50
46223;BME280;31943;51.410;7.564;2022-10-17T14:31:55;100888.63;;;20.99;61.92
46223;BME280;31943;51.410;7.564;2022-10-17T14:34:27;100885.31;;;20.89;61.67
46223;BME280;31943;51.410;7.564;2022-10-17T14:36:54;100889.78;;;20.87;62.05
46223;BME280;31943;51.410;7.564;2022-10-17T14:39:22;100888.06;;;20.86;61.85
46223;BME280;31943;51.410;7.564;2022-10-17T14:41:50;100886.28;;;20.85;61.98
46223;BME280;31943;51.410;7.564;2022-10-17T14:44:23;100876.47;;;20.90;62.15
46223;BME280;31943;51.410;7.564;2022-10-17T14:46:53;100886.16;;;20.91;62.19
46223;BME280;31943;51.410;7.564;2022-10-17T14:52:29;100893.38;;;20.86;61.88
46223;BME280;31943;51.410;7.564;2022-10-17T14:54:56;100903.97;;;20.86;62.30
46223;BME280;31943;51.410;7.564;2022-10-17T14:57:25;100900.38;;;20.88;62.11
46223;BME280;31943;51.410;7.564;2022-10-17T14:59:51;100907.47;;;20.88;62.41
46223;BME280;31943;51.410;7.564;2022-10-17T15:02:18;100909.28;;;20.86;62.04
46223;BME280;31943;51.410;7.564;2022-10-17T15:04:53;100906.69;;;20.83;62.19
46223;BME280;31943;51.410;7.564;2022-10-17T15:10:23;100929.69;;;20.82;62.20
46223;BME280;31943;51.410;7.564;2022-10-17T15:13:20;100933.34;;;20.77;62.32
46223;BME280;31943;51.410;7.564;2022-10-17T15:56:55;100965.25;;;20.25;64.00
46223;BME280;31943;51.410;7.564;2022-10-17T15:59:41;100966.00;;;20.32;63.67
46223;BME280;31943;51.410;7.564;2022-10-17T16:02:55;100981.16;;;20.27;63.85
46223;BME280;31943;51.410;7.564;2022-10-17T16:05:55;100983.81;;;20.25;64.06
46223;BME280;31943;51.410;7.564;2022-10-17T16:08:32;100986.47;;;20.24;64.58
46223;BME280;31943;51.410;7.564;2022-10-17T16:11:49;100988.28;;;20.22;64.69
46223;BME280;31943;51.410;7.564;2022-10-17T16:17:39;101003.50;;;20.10;65.02
46223;BME280;31943;51.410;7.564;2022-10-17T16:20:25;101003.47;;;20.12;65.14
46223;BME280;31943;51.410;7.564;2022-10-17T16:22:52;101020.19;;;20.15;65.14
46223;BME280;31943;51.410;7.564;2022-10-17T16:25:20;101026.47;;;20.10;65.31
46223;BME280;31943;51.410;7.564;2022-10-17T16:27:48;101030.97;;;20.05;65.84
46223;BME280;31943;51.410;7.564;2022-10-17T16:30:15;101039.81;;;20.05;65.48
46223;BME280;31943;51.410;7.564;2022-10-17T16:32:44;101043.38;;;20.01;66.20
46223;BME280;31943;51.410;7.564;2022-10-17T16:35:15;101036.38;;;19.99;66.10
46223;BME280;31943;51.410;7.564;2022-10-17T16:37:41;101047.03;;;19.95;65.99
46223;BME280;31943;51.410;7.564;2022-10-17T16:40:15;101055.84;;;19.98;66.18
46223;BME280;31943;51.410;7.564;2022-10-17T16:42:53;101061.13;;;19.98;66.46
46223;BME280;31943;51.410;7.564;2022-10-17T16:45:22;101064.63;;;20.00;66.69
46223;BME280;31943;51.410;7.564;2022-10-17T16:47:50;101071.63;;;20.04;66.70
46223;BME280;31943;51.410;7.564;2022-10-17T16:50:17;101076.91;;;20.04;66.79
46223;BME280;31943;51.410;7.564;2022-10-17T16:52:43;101072.56;;;20.00;67.81
46223;BME280;31943;51.410;7.564;2022-10-17T16:55:09;101075.22;;;20.00;67.72
46223;BME280;31943;51.410;7.564;2022-10-17T16:57:35;101070.91;;;19.92;67.88
46223;BME280;31943;51.410;7.564;2022-10-17T17:00:03;101081.63;;;19.85;68.45
46223;BME280;31943;51.410;7.564;2022-10-17T17:02:31;101080.06;;;19.70;69.35
46223;BME280;31943;51.410;7.564;2022-10-17T17:05:06;101089.84;;;19.62;69.43
46223;BME280;31943;51.410;7.564;2022-10-17T17:07:33;101087.28;;;19.55;69.75
46223;BME280;31943;51.410;7.564;2022-10-17T17:10:00;101085.56;;;19.53;69.67
46223;BME280;31943;51.410;7.564;2022-10-17T17:12:28;101084.72;;;19.52;70.05